createdAt,value
2023-04-01T00:01:14.978Z,98925.41
2023-04-01T00:03:42.481Z,98923.06
2023-04-01T00:06:27.446Z,98918.78
2023-04-01T00:08:57.121Z,98909.50
2023-04-01T00:11:24.526Z,98921.84
2023-04-01T00:13:51.655Z,98917.94
2023-04-01T00:16:21.705Z,98919.41
2023-04-01T00:18:51.555Z,98913.91
2023-04-01T00:21:21.371Z,98914.00
2023-04-01T00:23:49.883Z,98913.91
2023-04-01T00:26:20.041Z,98908.84
2023-04-01T00:28:48.417Z,98900.78
2023-04-01T00:31:16.006Z,98905.28
2023-04-01T00:33:44.402Z,98898.44
2023-04-01T00:36:19.657Z,98894.03
2023-04-01T00:38:47.748Z,98893.09
2023-04-01T00:41:17.919Z,98886.91
2023-04-01T00:43:50.310Z,98880.88
2023-04-01T00:46:17.586Z,98885.53
2023-04-01T00:48:54.251Z,98882.25
2023-04-01T00:51:31.567Z,98878.28
2023-04-01T00:54:02.730Z,98872.59
2023-04-01T00:56:41.400Z,98876.94
2023-04-01T00:59:36.478Z,98877.63
2023-04-01T01:02:09.154Z,98881.84
2023-04-01T01:04:37.640Z,98866.78
2023-04-01T01:07:37.401Z,98872.66
2023-04-01T01:10:29.698Z,98889.47
2023-04-01T01:13:34.928Z,98884.72
2023-04-01T01:16:44.603Z,98876.84
2023-04-01T01:20:00.439Z,98881.31
2023-04-01T01:23:03.409Z,98879.38
2023-04-01T01:26:39.286Z,98889.28
2023-04-01T01:29:30.335Z,98876.88
2023-04-01T01:32:44.648Z,98878.66
2023-04-01T01:35:47.287Z,98886.47
2023-04-01T01:38:28.445Z,98875.69
2023-04-01T01:41:02.657Z,98871.06
2023-04-01T01:43:43.337Z,98882.09
2023-04-01T01:46:24.466Z,98879.91
2023-04-01T01:48:53.361Z,98881.25
2023-04-01T01:51:23.718Z,98881.78
2023-04-01T01:53:51.114Z,98887.34
2023-04-01T01:56:28.111Z,98883.50
2023-04-01T01:59:07.400Z,98878.09
2023-04-01T02:01:41.826Z,98876.88
2023-04-01T02:04:16.317Z,98878.94
2023-04-01T02:06:55.911Z,98872.66
2023-04-01T02:09:23.593Z,98879.91
2023-04-01T02:11:58.198Z,98881.19
2023-04-01T02:14:32.870Z,98879.34
2023-04-01T02:17:09.749Z,98880.69
2023-04-01T02:19:51.795Z,98880.91
2023-04-01T02:22:47.583Z,98881.94
2023-04-01T02:25:37.710Z,98887.69
2023-04-01T02:28:08.582Z,98897.81
2023-04-01T02:30:41.073Z,98899.41
2023-04-01T02:33:08.855Z,98899.19
2023-04-01T02:35:38.298Z,98902.78
2023-04-01T02:38:06.758Z,98900.69
2023-04-01T02:40:59.798Z,98906.97
2023-04-01T02:43:27.984Z,98901.53
2023-04-01T02:45:55.912Z,98913.19
2023-04-01T02:48:23.069Z,98912.81
2023-04-01T02:50:50.774Z,98902.97
2023-04-01T02:53:18.507Z,98908.91
2023-04-01T02:55:45.946Z,98908.75
2023-04-01T02:58:13.236Z,98909.72
2023-04-01T03:00:40.392Z,98901.78
2023-04-01T03:03:08.601Z,98909.50
2023-04-01T03:05:36.193Z,98908.81
2023-04-01T03:08:04.199Z,98919.81
2023-04-01T03:10:31.341Z,98913.94
2023-04-01T03:12:58.524Z,98916.47
2023-04-01T03:15:25.917Z,98915.28
2023-04-01T03:17:53.128Z,98934.03
2023-04-01T03:20:21.201Z,98928.47
2023-04-01T03:22:48.441Z,98920.09
2023-04-01T03:25:15.861Z,98920.41
2023-04-01T03:27:43.007Z,98922.28
2023-04-01T03:30:11.309Z,98918.41
2023-04-01T03:32:47.132Z,98923.59
2023-04-01T03:35:14.405Z,98908.03
2023-04-01T03:37:41.898Z,98915.34
2023-04-01T03:40:10.597Z,98913.78
2023-04-01T03:42:37.973Z,98930.13
2023-04-01T03:45:06.832Z,98935.97
2023-04-01T03:47:34.115Z,98935.81
2023-04-01T03:50:01.379Z,98937.09
2023-04-01T03:52:28.744Z,98954.31
2023-04-01T03:54:56.153Z,98943.59
2023-04-01T03:57:23.710Z,98939.59
2023-04-01T03:59:51.142Z,98944.72
2023-04-01T04:02:19.509Z,98940.09
2023-04-01T04:04:47.441Z,98935.69
2023-04-01T04:07:14.999Z,98941.13
2023-04-01T04:10:04.783Z,98944.38
2023-04-01T04:12:32.160Z,98939.03
2023-04-01T04:14:59.303Z,98925.06
2023-04-01T04:17:27.016Z,98941.69
2023-04-01T04:19:54.228Z,98949.22
2023-04-01T04:22:22.315Z,98953.44
2023-04-01T04:24:49.605Z,98955.69
2023-04-01T04:27:16.856Z,98953.75
2023-04-01T04:30:09.321Z,98947.28
2023-04-01T04:32:38.172Z,98944.78
2023-04-01T04:35:07.437Z,98952.47
2023-04-01T04:37:35.509Z,98963.28
2023-04-01T04:40:02.779Z,98957.00
2023-04-01T04:42:30.846Z,98949.56
2023-04-01T04:45:03.973Z,98951.00
2023-04-01T04:47:31.372Z,98952.88
2023-04-01T04:49:58.534Z,98960.28
2023-04-01T04:52:25.884Z,98960.34
2023-04-01T04:54:53.060Z,98956.84
2023-04-01T04:57:20.294Z,98946.06
2023-04-01T04:59:54.437Z,98952.47
2023-04-01T05:02:54.049Z,98954.91
2023-04-01T05:05:21.323Z,98956.34
2023-04-01T05:07:48.660Z,98971.56
2023-04-01T05:10:15.936Z,98971.25
2023-04-01T05:12:43.196Z,98967.84
2023-04-01T05:15:12.473Z,98973.91
2023-04-01T05:17:40.628Z,98974.06
2023-04-01T05:20:08.636Z,98969.38
2023-04-01T05:22:36.212Z,98967.22
2023-04-01T05:25:03.709Z,98978.25
2023-04-01T05:27:31.002Z,98977.25
2023-04-01T05:29:58.670Z,98967.53
2023-04-01T05:32:39.908Z,98968.78
2023-04-01T05:35:08.224Z,98969.78
2023-04-01T05:37:36.541Z,98975.63
2023-04-01T05:40:06.951Z,98977.78
2023-04-01T05:42:36.768Z,98979.06
2023-04-01T05:45:06.422Z,98981.53
2023-04-01T05:47:52.231Z,98991.78
2023-04-01T05:50:20.722Z,98996.72
2023-04-01T05:52:47.955Z,98996.25
2023-04-01T05:55:15.447Z,98996.59
2023-04-01T05:57:42.748Z,98995.84
2023-04-01T06:00:11.589Z,98984.69
2023-04-01T06:02:43.572Z,98987.38
2023-04-01T06:05:25.328Z,98991.91
2023-04-01T06:08:05.580Z,98994.84
2023-04-01T06:11:17.540Z,98997.25
2023-04-01T06:14:38.620Z,99005.94
2023-04-01T06:17:52.996Z,99001.84
2023-04-01T06:20:43.248Z,99011.44
2023-04-01T06:23:40.762Z,99008.88
2023-04-01T06:26:38.831Z,99013.69
2023-04-01T06:30:02.113Z,99014.84
2023-04-01T06:32:53.938Z,99012.28
2023-04-01T06:36:35.831Z,99013.97
2023-04-01T06:39:29.666Z,99004.91
2023-04-01T06:42:51.361Z,99008.56
2023-04-01T06:46:21.100Z,99006.16
2023-04-01T06:49:40.761Z,99002.22
2023-04-01T06:53:43.724Z,98995.09
2023-04-01T06:56:30.852Z,98984.97
2023-04-01T06:59:15.051Z,98996.94
2023-04-01T07:02:10.494Z,98993.03
2023-04-01T07:04:46.057Z,98999.91
2023-04-01T07:07:39.635Z,99002.63
2023-04-01T07:10:32.574Z,99004.81
2023-04-01T07:13:37.672Z,99001.63
2023-04-01T07:16:31.204Z,98992.63
2023-04-01T07:19:26.910Z,98989.81
2023-04-01T07:22:22.461Z,98992.88
2023-04-01T07:25:35.160Z,98997.22
2023-04-01T07:28:35.134Z,99007.25
2023-04-01T07:32:41.824Z,99008.09
2023-04-01T07:35:56.047Z,99009.38
2023-04-01T07:38:48.915Z,99013.63
2023-04-01T07:42:05.213Z,99011.31
2023-04-01T07:45:30.415Z,98999.03
2023-04-01T07:48:26.345Z,99005.84
2023-04-01T07:51:49.034Z,99000.31
2023-04-01T07:54:33.513Z,98997.53
2023-04-01T07:57:39.104Z,98993.44
2023-04-01T08:00:24.292Z,98992.63
2023-04-01T08:04:07.732Z,98993.63
2023-04-01T08:07:04.529Z,98986.78
2023-04-01T08:10:01.865Z,98995.56
2023-04-01T08:13:20.394Z,98999.63
2023-04-01T08:16:35.783Z,99004.81
2023-04-01T08:19:28.601Z,99005.22
2023-04-01T08:22:05.551Z,99008.75
2023-04-01T08:24:55.245Z,98993.66
2023-04-01T08:27:42.094Z,99001.28
2023-04-01T08:30:26.268Z,99004.06
2023-04-01T08:33:10.612Z,98998.66
2023-04-01T08:35:50.337Z,99002.66
2023-04-01T08:38:30.817Z,99001.59
2023-04-01T08:41:16.264Z,98998.13
2023-04-01T08:44:46.698Z,98991.59
2023-04-01T08:48:01.711Z,98981.19
2023-04-01T08:51:13.973Z,98980.25
2023-04-01T08:54:22.308Z,98987.69
2023-04-01T08:57:43.815Z,98984.81
2023-04-01T09:00:58.592Z,98992.94
2023-04-01T09:04:16.624Z,98999.63
2023-04-01T09:07:42.817Z,98995.72
2023-04-01T09:11:01.050Z,98998.56
2023-04-01T09:14:23.062Z,98992.75
2023-04-01T09:17:44.686Z,99000.34
2023-04-01T09:21:01.597Z,98985.44
2023-04-01T09:23:59.922Z,98992.72
2023-04-01T09:27:28.473Z,98985.94
2023-04-01T09:31:11.815Z,98982.53
2023-04-01T09:34:20.931Z,98993.34
2023-04-01T09:37:49.096Z,98988.53
2023-04-01T09:40:43.786Z,98991.38
2023-04-01T09:43:41.127Z,98988.72
2023-04-01T09:46:38.078Z,98984.75
2023-04-01T09:49:49.782Z,98984.81
2023-04-01T09:52:51.111Z,98985.09
2023-04-01T09:56:21.652Z,98983.47
2023-04-01T09:59:30.666Z,98978.41
2023-04-01T10:02:25.176Z,98979.34
2023-04-01T10:05:33.022Z,98974.38
2023-04-01T10:09:12.750Z,98978.09
2023-04-01T10:12:19.828Z,98974.59
2023-04-01T10:15:31.101Z,98974.53
2023-04-01T10:18:50.834Z,98983.59
2023-04-01T10:21:58.466Z,98974.06
2023-04-01T10:25:07.808Z,98978.44
2023-04-01T10:28:06.775Z,98969.44
2023-04-01T10:31:51.843Z,98973.16
2023-04-01T10:34:57.839Z,98967.88
2023-04-01T10:38:14.385Z,98973.34
2023-04-01T10:41:12.684Z,98971.53
2023-04-01T10:45:03.314Z,98964.53
2023-04-01T10:48:15.487Z,98962.97
2023-04-01T10:51:16.974Z,98966.50
2023-04-01T10:54:35.834Z,98960.31
2023-04-01T10:58:22.179Z,98968.28
2023-04-01T11:02:35.123Z,98948.34
2023-04-01T11:05:47.892Z,98956.31
2023-04-01T11:08:49.751Z,98953.19
2023-04-01T11:12:00.028Z,98933.91
2023-04-01T11:15:25.929Z,98933.44
2023-04-01T11:18:37.584Z,98935.09
2023-04-01T11:22:10.469Z,98926.13
2023-04-01T11:25:31.265Z,98936.00
2023-04-01T11:28:59.919Z,98931.63
2023-04-01T11:32:30.348Z,98915.97
2023-04-01T11:35:27.385Z,98921.50
2023-04-01T11:38:54.858Z,98912.47
2023-04-01T11:42:22.685Z,98913.56
2023-04-01T11:46:04.470Z,98915.84
2023-04-01T11:48:52.293Z,98904.59
2023-04-01T11:52:03.564Z,98919.69
2023-04-01T11:54:58.103Z,98914.75
2023-04-01T11:57:53.159Z,98909.50
2023-04-01T12:00:47.936Z,98917.47
2023-04-01T12:04:21.953Z,98913.09
2023-04-01T12:07:24.070Z,98906.88
2023-04-01T12:10:22.842Z,98906.91
2023-04-01T12:13:12.987Z,98908.72
2023-04-01T12:16:21.188Z,98908.63
2023-04-01T12:19:35.939Z,98900.69
2023-04-01T12:23:09.450Z,98894.50
2023-04-01T12:26:17.338Z,98900.66
2023-04-01T12:29:10.618Z,98891.78
2023-04-01T12:32:36.170Z,98886.50
2023-04-01T12:35:22.977Z,98889.09
2023-04-01T12:39:13.959Z,98881.13
2023-04-01T12:42:31.664Z,98874.94
2023-04-01T12:45:35.748Z,98878.47
2023-04-01T12:48:32.844Z,98874.78
2023-04-01T12:51:34.244Z,98864.41
2023-04-01T12:54:33.340Z,98851.03
2023-04-01T12:57:45.590Z,98855.19
2023-04-01T13:00:50.445Z,98850.72
2023-04-01T13:03:48.387Z,98857.03
2023-04-01T13:06:50.249Z,98850.13
2023-04-01T13:09:39.553Z,98848.28
2023-04-01T13:13:09.819Z,98844.44
2023-04-01T13:15:53.130Z,98844.88
2023-04-01T13:18:36.149Z,98843.53
2023-04-01T13:21:35.136Z,98835.94
2023-04-01T13:24:31.429Z,98839.09
2023-04-01T13:27:34.742Z,98834.50
2023-04-01T13:31:04.591Z,98834.75
2023-04-01T13:34:21.699Z,98832.19
2023-04-01T13:37:20.990Z,98821.38
2023-04-01T13:40:28.654Z,98824.41
2023-04-01T13:43:54.832Z,98824.66
2023-04-01T13:47:00.149Z,98814.78
2023-04-01T13:49:57.741Z,98820.22
2023-04-01T13:52:48.556Z,98825.28
2023-04-01T13:55:52.655Z,98824.38
2023-04-01T13:59:02.523Z,98823.09
2023-04-01T14:01:56.945Z,98814.97
2023-04-01T14:04:54.785Z,98815.88
2023-04-01T14:08:16.451Z,98811.28
2023-04-01T14:11:13.722Z,98801.00
2023-04-01T14:14:14.836Z,98797.38
2023-04-01T14:17:31.322Z,98794.03
2023-04-01T14:21:05.377Z,98797.25
2023-04-01T14:24:08.364Z,98788.44
2023-04-01T14:27:00.209Z,98797.34
2023-04-01T14:30:26.294Z,98785.53
2023-04-01T14:33:22.467Z,98769.53
2023-04-01T14:36:28.321Z,98766.88
2023-04-01T14:39:30.711Z,98757.03
2023-04-01T14:42:28.823Z,98749.38
2023-04-01T14:45:26.279Z,98754.53
2023-04-01T14:48:35.269Z,98750.78
2023-04-01T14:51:41.078Z,98753.91
2023-04-01T14:54:34.624Z,98747.81
2023-04-01T14:57:32.645Z,98735.94
2023-04-01T15:00:19.950Z,98729.44
2023-04-01T15:03:09.278Z,98733.72
2023-04-01T15:06:33.238Z,98722.56
2023-04-01T15:09:40.476Z,98724.09
2023-04-01T15:12:48.610Z,98718.31
2023-04-01T15:16:31.782Z,98720.50
2023-04-01T15:19:38.584Z,98719.56
2023-04-01T15:23:03.069Z,98715.59
2023-04-01T15:26:44.805Z,98706.69
2023-04-01T15:29:38.970Z,98702.84
2023-04-01T15:32:18.857Z,98697.59
2023-04-01T15:35:25.875Z,98697.94
2023-04-01T15:38:22.360Z,98703.06
2023-04-01T15:42:07.601Z,98694.16
2023-04-01T15:45:04.500Z,98696.13
2023-04-01T15:48:41.504Z,98688.97
2023-04-01T15:51:42.073Z,98692.56
2023-04-01T15:54:59.502Z,98687.63
2023-04-01T15:58:19.643Z,98693.38
2023-04-01T16:01:45.908Z,98683.06
2023-04-01T16:04:37.775Z,98681.56
2023-04-01T16:07:51.504Z,98681.75
2023-04-01T16:11:11.188Z,98679.84
2023-04-01T16:14:00.753Z,98678.63
2023-04-01T16:16:54.356Z,98668.72
2023-04-01T16:19:56.442Z,98665.09
2023-04-01T16:23:41.842Z,98664.22
2023-04-01T16:26:48.512Z,98670.47
2023-04-01T16:29:44.566Z,98669.06
2023-04-01T16:32:46.071Z,98655.66
2023-04-01T16:35:42.969Z,98663.03
2023-04-01T16:38:31.963Z,98657.75
2023-04-01T16:41:25.618Z,98659.25
2023-04-01T16:44:10.724Z,98664.63
2023-04-01T16:46:42.536Z,98658.94
2023-04-01T16:49:12.544Z,98661.19
2023-04-01T16:51:56.277Z,98657.16
2023-04-01T16:54:37.375Z,98660.31
2023-04-01T16:57:52.153Z,98657.66
2023-04-01T17:00:27.966Z,98659.16
2023-04-01T17:03:33.405Z,98657.91
2023-04-01T17:06:30.728Z,98658.97
2023-04-01T17:09:29.970Z,98665.09
2023-04-01T17:12:33.660Z,98672.66
2023-04-01T17:15:57.726Z,98672.84
2023-04-01T17:19:27.037Z,98672.28
2023-04-01T17:22:55.871Z,98675.13
2023-04-01T17:25:44.330Z,98675.72
2023-04-01T17:28:31.512Z,98685.03
2023-04-01T17:31:33.597Z,98687.13
2023-04-01T17:34:22.455Z,98681.09
2023-04-01T17:37:19.463Z,98681.16
2023-04-01T17:39:58.089Z,98683.88
2023-04-01T17:42:55.274Z,98688.41
2023-04-01T17:45:59.100Z,98693.00
2023-04-01T17:48:58.602Z,98685.16
2023-04-01T17:51:53.382Z,98682.59
2023-04-01T17:54:43.787Z,98683.56
2023-04-01T17:57:55.888Z,98683.63
2023-04-01T18:00:59.792Z,98686.28
2023-04-01T18:04:27.225Z,98681.00
2023-04-01T18:07:48.806Z,98691.59
2023-04-01T18:10:40.400Z,98689.00
2023-04-01T18:14:05.802Z,98696.97
2023-04-01T18:16:48.060Z,98700.47
2023-04-01T18:19:43.800Z,98700.47
2023-04-01T18:23:20.505Z,98705.75
2023-04-01T18:25:55.303Z,98703.06
2023-04-01T18:28:31.268Z,98705.63
2023-04-01T18:31:03.417Z,98707.34
2023-04-01T18:33:44.124Z,98702.81
2023-04-01T18:37:01.938Z,98707.03
2023-04-01T18:39:41.691Z,98710.50
2023-04-01T18:43:11.300Z,98705.19
2023-04-01T18:46:03.146Z,98709.50
2023-04-01T18:48:57.727Z,98714.66
2023-04-01T18:51:59.090Z,98721.56
2023-04-01T18:55:10.283Z,98722.34
2023-04-01T18:57:54.090Z,98729.34
2023-04-01T19:00:38.112Z,98724.03
2023-04-01T19:03:44.670Z,98732.88
2023-04-01T19:07:42.626Z,98737.13
2023-04-01T19:10:42.913Z,98744.94
2023-04-01T19:13:38.428Z,98742.16
2023-04-01T19:16:17.953Z,98739.44
2023-04-01T19:19:12.124Z,98748.97
2023-04-01T19:21:56.734Z,98741.13
2023-04-01T19:25:32.519Z,98742.34
2023-04-01T19:28:30.646Z,98750.22
2023-04-01T19:31:26.347Z,98751.03
2023-04-01T19:34:20.493Z,98757.06
2023-04-01T19:37:03.408Z,98755.06
2023-04-01T19:40:09.001Z,98753.06
2023-04-01T19:43:33.200Z,98763.59
2023-04-01T19:46:44.169Z,98764.41
2023-04-01T19:49:32.863Z,98766.00
2023-04-01T19:52:32.128Z,98766.00
2023-04-01T19:55:23.367Z,98768.56
2023-04-01T19:58:26.130Z,98773.41
2023-04-01T20:00:59.076Z,98771.63
2023-04-01T20:03:35.574Z,98774.34
2023-04-01T20:06:38.786Z,98774.19
2023-04-01T20:09:54.279Z,98779.16
2023-04-01T20:13:11.532Z,98774.47
2023-04-01T20:15:47.020Z,98773.66
2023-04-01T20:18:28.364Z,98787.66
2023-04-01T20:21:15.407Z,98789.91
2023-04-01T20:24:09.101Z,98783.63
2023-04-01T20:26:42.716Z,98778.09
2023-04-01T20:29:56.903Z,98785.06
2023-04-01T20:32:44.938Z,98783.03
2023-04-01T20:35:28.147Z,98778.47
2023-04-01T20:38:53.428Z,98784.31
2023-04-01T20:42:00.475Z,98786.66
2023-04-01T20:45:10.513Z,98793.41
2023-04-01T20:48:16.258Z,98788.94
2023-04-01T20:51:14.690Z,98789.66
2023-04-01T20:54:03.671Z,98796.50
2023-04-01T20:57:01.923Z,98792.91
2023-04-01T21:00:05.745Z,98799.06
2023-04-01T21:02:57.713Z,98812.44
2023-04-01T21:06:14.784Z,98815.78
2023-04-01T21:09:20.651Z,98829.19
2023-04-01T21:12:42.928Z,98832.38
2023-04-01T21:15:34.724Z,98832.41
2023-04-01T21:18:40.039Z,98831.97
2023-04-01T21:21:44.148Z,98838.44
2023-04-01T21:25:01.674Z,98838.22
2023-04-01T21:28:41.460Z,98838.97
2023-04-01T21:31:46.432Z,98844.94
2023-04-01T21:34:36.529Z,98840.34
2023-04-01T21:37:38.419Z,98851.38
2023-04-01T21:40:58.434Z,98848.28
2023-04-01T21:43:51.682Z,98846.34
2023-04-01T21:46:43.182Z,98846.13
2023-04-01T21:49:36.887Z,98845.16
2023-04-01T21:52:34.599Z,98846.28
2023-04-01T21:56:25.306Z,98854.19
2023-04-01T21:59:14.183Z,98865.72
2023-04-01T22:02:15.812Z,98877.97
2023-04-01T22:05:24.755Z,98882.06
2023-04-01T22:09:01.678Z,98874.69
2023-04-01T22:12:03.854Z,98879.69
2023-04-01T22:15:00.774Z,98868.97
2023-04-01T22:18:05.169Z,98870.59
2023-04-01T22:21:06.084Z,98868.66
2023-04-01T22:24:23.819Z,98869.09
2023-04-01T22:27:29.616Z,98862.59
2023-04-01T22:30:25.455Z,98859.75
2023-04-01T22:33:13.179Z,98858.84
2023-04-01T22:36:17.256Z,98863.66
2023-04-01T22:39:08.662Z,98868.22
2023-04-01T22:42:10.937Z,98866.69
2023-04-01T22:45:03.074Z,98866.69
2023-04-01T22:48:02.425Z,98872.03
2023-04-01T22:50:56.624Z,98871.03
2023-04-01T22:53:55.993Z,98869.28
2023-04-01T22:57:30.251Z,98868.13
2023-04-01T23:00:16.254Z,98875.75
2023-04-01T23:03:21.647Z,98872.13
2023-04-01T23:06:02.383Z,98877.22
2023-04-01T23:09:03.702Z,98897.75
2023-04-01T23:12:04.103Z,98898.25
2023-04-01T23:14:54.864Z,98892.50
2023-04-01T23:17:54.511Z,98898.78
2023-04-01T23:21:15.231Z,98896.31
2023-04-01T23:24:28.734Z,98895.97
2023-04-01T23:27:14.726Z,98894.19
2023-04-01T23:29:43.738Z,98891.41
2023-04-01T23:32:26.904Z,98889.22
2023-04-01T23:34:58.299Z,98902.06
2023-04-01T23:37:26.546Z,98894.75
2023-04-01T23:39:59.501Z,98899.00
2023-04-01T23:42:42.233Z,98900.50
2023-04-01T23:45:21.549Z,98898.50
2023-04-01T23:47:51.498Z,98907.06
2023-04-01T23:50:26.542Z,98902.75
2023-04-01T23:53:24.762Z,98905.22
2023-04-01T23:55:53.680Z,98906.75
2023-04-01T23:58:39.848Z,98905.59
